createdAt,value
2022-08-20T00:02:13.772Z,1.37
2022-08-20T00:04:42.065Z,1.40
2022-08-20T00:07:11.440Z,1.20
2022-08-20T00:09:39.705Z,1.20
2022-08-20T00:12:08.687Z,1.67
2022-08-20T00:14:37.403Z,1.70
2022-08-20T00:17:06.921Z,1.40
2022-08-20T00:19:35.393Z,1.00
2022-08-20T00:22:03.430Z,1.33
2022-08-20T00:24:32.957Z,1.23
2022-08-20T00:27:00.967Z,1.33
2022-08-20T00:29:29.036Z,1.23
2022-08-20T00:31:56.981Z,1.10
2022-08-20T00:34:25.020Z,1.90
2022-08-20T00:36:53.011Z,1.77
2022-08-20T00:39:21.020Z,2.13
2022-08-20T00:41:51.925Z,1.37
2022-08-20T00:44:22.741Z,2.17
2022-08-20T00:46:52.320Z,1.50
2022-08-20T00:49:24.691Z,1.60
2022-08-20T00:51:57.974Z,1.50
2022-08-20T00:54:31.087Z,1.70
2022-08-20T00:57:04.471Z,1.33
2022-08-20T00:59:36.205Z,1.40
2022-08-20T01:02:07.562Z,1.50
2022-08-20T01:04:37.439Z,1.43
2022-08-20T01:07:07.407Z,1.90
2022-08-20T01:09:57.662Z,1.20
2022-08-20T01:12:26.888Z,1.20
2022-08-20T01:14:56.083Z,1.47
2022-08-20T01:17:26.576Z,1.37
2022-08-20T01:19:58.707Z,1.30
2022-08-20T01:22:57.082Z,1.33
2022-08-20T01:25:31.724Z,1.77
2022-08-20T01:28:01.400Z,1.50
2022-08-20T01:30:30.781Z,1.90
2022-08-20T01:32:58.809Z,1.90
2022-08-20T01:35:27.562Z,1.07
2022-08-20T01:37:56.055Z,1.77
2022-08-20T01:40:36.854Z,1.77
2022-08-20T01:43:06.445Z,1.43
2022-08-20T01:45:36.373Z,1.40
2022-08-20T01:48:06.142Z,1.70
2022-08-20T01:50:37.818Z,1.43
2022-08-20T01:53:12.462Z,1.53
2022-08-20T01:55:40.617Z,1.50
2022-08-20T01:58:10.070Z,1.77
2022-08-20T02:00:38.298Z,1.67
2022-08-20T02:03:07.593Z,1.57
2022-08-20T02:05:36.025Z,1.00
2022-08-20T02:08:04.663Z,1.83
2022-08-20T02:10:33.272Z,1.90
2022-08-20T02:13:02.236Z,1.30
2022-08-20T02:15:37.104Z,1.63
2022-08-20T02:18:08.232Z,2.10
2022-08-20T02:20:37.301Z,1.70
2022-08-20T02:23:07.629Z,2.20
2022-08-20T02:25:38.632Z,1.60
2022-08-20T02:28:10.522Z,1.40
2022-08-20T02:30:43.244Z,1.50
2022-08-20T02:33:15.098Z,1.43
2022-08-20T02:35:46.846Z,1.63
2022-08-20T02:38:15.887Z,1.43
2022-08-20T02:40:46.007Z,1.40
2022-08-20T02:43:15.485Z,1.47
2022-08-20T02:45:44.837Z,1.47
2022-08-20T02:48:21.379Z,1.53
2022-08-20T02:50:51.758Z,1.20
2022-08-20T02:53:20.066Z,1.77
2022-08-20T02:55:48.358Z,1.30
2022-08-20T02:58:17.238Z,1.50
2022-08-20T03:00:47.274Z,1.80
2022-08-20T03:03:15.785Z,2.13
2022-08-20T03:05:45.874Z,1.70
2022-08-20T03:08:15.601Z,2.20
2022-08-20T03:10:46.789Z,1.80
2022-08-20T03:13:16.439Z,1.67
2022-08-20T03:15:48.567Z,1.83
2022-08-20T03:18:18.115Z,1.53
2022-08-20T03:20:47.416Z,1.50
2022-08-20T03:23:21.738Z,1.50
2022-08-20T03:25:50.445Z,1.87
2022-08-20T03:28:19.435Z,1.90
2022-08-20T03:30:48.908Z,1.50
2022-08-20T03:33:17.259Z,2.20
2022-08-20T03:35:45.294Z,2.33
2022-08-20T03:38:15.218Z,1.70
2022-08-20T03:40:43.678Z,2.00
2022-08-20T03:43:12.314Z,1.87
2022-08-20T03:45:42.376Z,2.13
2022-08-20T03:48:14.962Z,2.17
2022-08-20T03:50:43.302Z,2.27
2022-08-20T03:53:12.259Z,1.67
2022-08-20T03:55:45.419Z,2.00
2022-08-20T03:58:22.183Z,2.27
2022-08-20T04:01:03.801Z,2.37
2022-08-20T04:03:33.284Z,1.97
2022-08-20T04:06:01.293Z,2.33
2022-08-20T04:08:30.524Z,1.70
2022-08-20T04:10:59.994Z,2.50
2022-08-20T04:13:29.763Z,2.13
2022-08-20T04:15:58.760Z,2.07
2022-08-20T04:18:27.350Z,2.33
2022-08-20T04:20:56.944Z,2.00
2022-08-20T04:23:24.918Z,2.07
2022-08-20T04:25:52.904Z,2.20
2022-08-20T04:28:27.068Z,2.47
2022-08-20T04:30:55.808Z,2.60
2022-08-20T04:33:33.895Z,2.60
2022-08-20T04:36:06.606Z,2.60
2022-08-20T04:38:47.848Z,2.57
2022-08-20T04:41:22.872Z,2.40
2022-08-20T04:43:53.029Z,2.40
2022-08-20T04:46:22.427Z,2.50
2022-08-20T04:48:50.787Z,2.27
2022-08-20T04:51:23.307Z,2.33
2022-08-20T04:53:54.314Z,3.17
2022-08-20T04:56:24.573Z,3.00
2022-08-20T04:58:54.108Z,3.10
2022-08-20T05:01:23.635Z,3.40
2022-08-20T05:03:54.686Z,2.73
2022-08-20T05:06:28.512Z,3.30
2022-08-20T05:08:58.171Z,2.60
2022-08-20T05:11:33.518Z,3.67
2022-08-20T05:14:05.364Z,2.60
2022-08-20T05:16:37.855Z,3.20
2022-08-20T05:19:07.046Z,3.17
2022-08-20T05:21:36.364Z,3.00
2022-08-20T05:24:04.961Z,2.43
2022-08-20T05:26:34.219Z,2.60
2022-08-20T05:29:04.968Z,3.10
2022-08-20T05:31:34.701Z,2.43
2022-08-20T05:34:03.356Z,2.30
2022-08-20T05:36:31.346Z,2.50
2022-08-20T05:39:00.640Z,2.60
2022-08-20T05:41:30.392Z,2.53
2022-08-20T05:44:01.691Z,2.70
2022-08-20T05:46:31.089Z,2.80
2022-08-20T05:49:00.239Z,2.40
2022-08-20T05:51:28.850Z,2.77
2022-08-20T05:53:58.286Z,2.50
2022-08-20T05:56:30.408Z,2.70
2022-08-20T05:59:00.182Z,3.00
2022-08-20T06:01:28.249Z,2.60
2022-08-20T06:04:15.022Z,2.93
2022-08-20T06:06:45.230Z,3.57
2022-08-20T06:09:16.462Z,2.70
2022-08-20T06:11:59.250Z,2.13
2022-08-20T06:14:27.458Z,2.47
2022-08-20T06:16:57.648Z,2.37
2022-08-20T06:19:27.202Z,3.20
2022-08-20T06:22:00.597Z,2.72
2022-08-20T06:24:28.787Z,3.17
2022-08-20T06:26:58.655Z,2.77
2022-08-20T06:29:27.895Z,2.97
2022-08-20T06:31:57.005Z,2.37
2022-08-20T06:34:28.285Z,2.20
2022-08-20T06:36:59.358Z,2.70
2022-08-20T06:39:29.970Z,3.03
2022-08-20T06:41:59.662Z,2.90
2022-08-20T06:44:28.426Z,2.80
2022-08-20T06:47:00.934Z,2.67
2022-08-20T06:49:29.000Z,2.87
2022-08-20T06:52:03.695Z,2.73
2022-08-20T06:54:32.770Z,3.40
2022-08-20T06:57:02.387Z,2.60
2022-08-20T06:59:30.399Z,3.07
2022-08-20T07:01:58.378Z,2.90
2022-08-20T07:04:27.724Z,2.30
2022-08-20T07:06:57.605Z,3.17
2022-08-20T07:09:28.170Z,3.00
2022-08-20T07:11:56.602Z,3.10
2022-08-20T07:14:26.074Z,2.87
2022-08-20T07:16:54.112Z,2.73
2022-08-20T07:19:22.436Z,3.03
2022-08-20T07:21:50.678Z,3.40
2022-08-20T07:24:18.647Z,2.80
2022-08-20T07:26:46.869Z,3.60
2022-08-20T07:29:14.835Z,2.63
2022-08-20T07:32:01.930Z,4.30
2022-08-20T07:34:31.503Z,2.93
2022-08-20T07:37:01.120Z,3.43
2022-08-20T07:39:30.020Z,3.43
2022-08-20T07:42:04.030Z,2.87
2022-08-20T07:44:32.127Z,2.60
2022-08-20T07:47:01.557Z,3.30
2022-08-20T07:49:30.988Z,2.80
2022-08-20T07:51:59.029Z,3.03
2022-08-20T07:54:28.018Z,4.47
2022-08-20T07:57:02.501Z,3.53
2022-08-20T07:59:30.967Z,3.43
2022-08-20T08:01:59.448Z,3.77
2022-08-20T08:04:28.796Z,3.00
2022-08-20T08:07:00.035Z,3.60
2022-08-20T08:09:29.302Z,2.80
2022-08-20T08:12:01.808Z,2.87
2022-08-20T08:14:32.735Z,2.90
2022-08-20T08:17:04.348Z,2.47
2022-08-20T08:19:38.712Z,2.87
2022-08-20T08:22:10.926Z,2.87
2022-08-20T08:24:39.936Z,2.83
2022-08-20T08:27:08.925Z,2.80
2022-08-20T08:29:37.360Z,3.00
2022-08-20T08:32:06.972Z,2.80
2022-08-20T08:34:37.729Z,3.03
2022-08-20T08:37:05.949Z,2.90
2022-08-20T08:39:35.055Z,2.90
2022-08-20T08:42:05.184Z,2.47
2022-08-20T08:44:38.619Z,2.67
2022-08-20T08:47:18.498Z,2.60
2022-08-20T08:49:49.997Z,2.57
2022-08-20T08:52:22.315Z,2.80
2022-08-20T08:54:55.259Z,2.80
2022-08-20T08:57:24.094Z,2.73
2022-08-20T09:00:04.950Z,3.07
2022-08-20T09:02:34.379Z,2.33
2022-08-20T09:05:04.944Z,2.40
2022-08-20T09:07:34.584Z,2.90
2022-08-20T09:10:04.279Z,2.80
2022-08-20T09:12:33.127Z,3.03
2022-08-20T09:15:01.468Z,2.80
2022-08-20T09:17:29.569Z,2.80
2022-08-20T09:19:57.558Z,2.20
2022-08-20T09:22:26.942Z,3.00
2022-08-20T09:24:54.950Z,2.40
2022-08-20T09:27:22.949Z,2.13
2022-08-20T09:29:53.369Z,2.60
2022-08-20T09:32:25.066Z,2.50
2022-08-20T09:34:56.906Z,2.57
2022-08-20T09:37:33.716Z,2.47
2022-08-20T09:40:06.506Z,2.00
2022-08-20T09:42:40.748Z,2.57
2022-08-20T09:45:11.685Z,2.30
2022-08-20T09:47:54.799Z,2.20
2022-08-20T09:50:24.332Z,2.73
2022-08-20T09:52:55.210Z,2.70
2022-08-20T09:55:29.296Z,2.93
2022-08-20T09:57:57.521Z,2.93
2022-08-20T10:00:25.703Z,2.90
2022-08-20T10:02:53.685Z,2.20
2022-08-20T10:05:21.764Z,2.50
2022-08-20T10:07:51.075Z,3.47
2022-08-20T10:10:20.422Z,2.57
2022-08-20T10:12:52.822Z,2.80
2022-08-20T10:15:22.805Z,2.67
2022-08-20T10:17:50.898Z,2.73
2022-08-20T10:20:19.650Z,3.13
2022-08-20T10:22:47.673Z,3.70
2022-08-20T10:25:16.707Z,3.10
2022-08-20T10:27:46.259Z,3.00
2022-08-20T10:30:14.552Z,2.73
2022-08-20T10:32:42.765Z,2.97
2022-08-20T10:35:10.859Z,3.57
2022-08-20T10:37:38.837Z,3.57
2022-08-20T10:40:08.649Z,3.47
2022-08-20T10:42:40.527Z,2.43
2022-08-20T10:45:13.605Z,2.47
2022-08-20T10:47:41.894Z,2.13
2022-08-20T10:50:13.536Z,1.77
2022-08-20T10:52:41.598Z,1.63
2022-08-20T10:55:10.831Z,1.60
2022-08-20T10:57:40.653Z,1.60
2022-08-20T11:00:10.212Z,2.03
2022-08-20T11:02:40.093Z,2.50
2022-08-20T11:05:09.940Z,1.60
2022-08-20T11:07:55.314Z,2.47
2022-08-20T11:10:29.906Z,1.63
2022-08-20T11:12:58.272Z,1.67
2022-08-20T11:15:26.368Z,2.20
2022-08-20T11:17:56.408Z,1.97
2022-08-20T11:20:26.379Z,1.20
2022-08-20T11:22:55.544Z,1.10
2022-08-20T11:25:23.682Z,1.10
2022-08-20T11:27:52.994Z,1.40
2022-08-20T11:30:24.002Z,1.60
2022-08-20T11:32:51.999Z,1.10
2022-08-20T11:35:48.389Z,1.00
2022-08-20T11:38:12.254Z,1.03
2022-08-20T11:40:40.266Z,1.00
2022-08-20T11:43:14.786Z,0.90
2022-08-20T11:45:43.724Z,1.20
2022-08-20T11:48:11.742Z,1.17
2022-08-20T11:50:41.150Z,0.80
2022-08-20T11:53:09.228Z,0.73
2022-08-20T11:55:38.626Z,0.90
2022-08-20T11:58:07.119Z,0.97
2022-08-20T12:00:36.843Z,0.90
2022-08-20T12:03:09.354Z,0.90
2022-08-20T12:05:40.893Z,1.00
2022-08-20T12:08:09.427Z,0.60
2022-08-20T12:10:38.164Z,0.60
2022-08-20T12:13:06.272Z,0.73
2022-08-20T12:15:34.317Z,0.70
2022-08-20T12:18:02.413Z,0.90
2022-08-20T12:20:30.404Z,0.70
2022-08-20T12:22:59.899Z,0.50
2022-08-20T12:25:28.187Z,0.70
2022-08-20T12:27:56.424Z,0.60
2022-08-20T12:30:25.681Z,0.50
2022-08-20T12:32:53.709Z,0.70
2022-08-20T12:35:22.039Z,0.70
2022-08-20T12:37:50.211Z,0.80
2022-08-20T12:40:31.845Z,0.60
2022-08-20T12:43:00.661Z,0.57
2022-08-20T12:45:28.917Z,0.63
2022-08-20T12:48:02.971Z,0.60
2022-08-20T12:50:31.984Z,0.83
2022-08-20T12:53:00.325Z,0.60
2022-08-20T12:55:30.350Z,0.70
2022-08-20T12:58:00.908Z,0.70
2022-08-20T13:00:32.090Z,0.90
2022-08-20T13:03:02.129Z,0.60
2022-08-20T13:05:30.963Z,0.60
2022-08-20T13:07:59.210Z,0.90
2022-08-20T13:10:31.536Z,0.83
2022-08-20T13:13:01.791Z,0.60
2022-08-20T13:15:30.242Z,0.60
2022-08-20T13:18:01.604Z,0.60
2022-08-20T13:20:34.062Z,0.60
2022-08-20T13:23:03.461Z,0.70
2022-08-20T13:25:33.620Z,0.70
2022-08-20T13:28:04.853Z,0.70
2022-08-20T13:30:34.892Z,1.10
2022-08-20T13:33:03.538Z,1.13
2022-08-20T13:35:32.257Z,1.30
2022-08-20T13:38:00.463Z,1.00
2022-08-20T13:40:28.558Z,0.63
2022-08-20T13:42:58.295Z,1.00
2022-08-20T13:45:26.914Z,1.17
2022-08-20T13:47:56.670Z,0.83
2022-08-20T13:50:27.508Z,1.00
2022-08-20T13:52:56.194Z,0.80
2022-08-20T13:55:27.657Z,0.60
2022-08-20T13:57:56.722Z,0.80
2022-08-20T14:00:31.357Z,1.00
2022-08-20T14:03:00.594Z,0.60
2022-08-20T14:05:29.000Z,1.00
2022-08-20T14:07:57.668Z,0.73
2022-08-20T14:10:32.535Z,0.80
2022-08-20T14:13:00.791Z,0.80
2022-08-20T14:15:32.283Z,1.03
2022-08-20T14:18:00.382Z,1.00
2022-08-20T14:20:33.987Z,1.10
2022-08-20T14:23:02.817Z,0.70
2022-08-20T14:25:32.903Z,1.00
2022-08-20T14:28:09.470Z,0.70
2022-08-20T14:30:39.198Z,0.80
2022-08-20T14:33:07.252Z,0.60
2022-08-20T14:35:35.381Z,0.60
2022-08-20T14:38:05.444Z,1.00
2022-08-20T14:40:34.360Z,1.10
2022-08-20T14:43:03.168Z,0.87
2022-08-20T14:45:31.515Z,0.90
2022-08-20T14:48:01.217Z,1.00
2022-08-20T14:50:30.653Z,0.80
2022-08-20T14:52:59.578Z,1.30
2022-08-20T14:55:28.900Z,1.20
2022-08-20T14:57:57.268Z,1.00
2022-08-20T15:00:26.984Z,1.50
2022-08-20T15:02:55.739Z,1.17
2022-08-20T15:05:25.887Z,0.93
2022-08-20T15:07:55.360Z,1.07
2022-08-20T15:10:24.989Z,0.90
2022-08-20T15:12:53.609Z,1.00
2022-08-20T15:15:22.430Z,0.90
2022-08-20T15:17:52.437Z,1.57
2022-08-20T15:20:23.523Z,0.70
2022-08-20T15:22:53.287Z,0.87
2022-08-20T15:25:23.004Z,1.20
2022-08-20T15:27:51.591Z,0.80
2022-08-20T15:30:21.695Z,1.07
2022-08-20T15:32:54.891Z,0.80
2022-08-20T15:35:23.552Z,1.53
2022-08-20T15:37:54.818Z,1.23
2022-08-20T15:40:28.227Z,1.00
2022-08-20T15:42:57.077Z,0.70
2022-08-20T15:45:26.758Z,0.87
2022-08-20T15:48:00.458Z,1.10
2022-08-20T15:50:37.489Z,0.70
2022-08-20T15:53:09.332Z,1.00
2022-08-20T15:55:38.864Z,1.10
2022-08-20T15:58:10.686Z,1.00
2022-08-20T16:00:42.277Z,0.83
2022-08-20T16:03:17.630Z,1.27
2022-08-20T16:05:49.932Z,1.00
2022-08-20T16:08:23.867Z,1.20
2022-08-20T16:10:55.740Z,0.90
2022-08-20T16:13:31.481Z,1.23
2022-08-20T16:16:02.598Z,1.23
2022-08-20T16:18:33.602Z,0.93
2022-08-20T16:21:03.905Z,1.17
2022-08-20T16:23:35.400Z,0.90
2022-08-20T16:26:08.883Z,1.17
2022-08-20T16:28:42.747Z,1.00
2022-08-20T16:31:13.995Z,1.00
2022-08-20T16:33:44.992Z,1.00
2022-08-20T16:36:17.178Z,1.20
2022-08-20T16:38:50.067Z,1.00
2022-08-20T16:41:21.993Z,0.80
2022-08-20T16:43:53.256Z,1.30
2022-08-20T16:46:22.857Z,0.80
2022-08-20T16:48:55.997Z,0.97
2022-08-20T16:51:38.014Z,0.80
2022-08-20T16:54:08.197Z,1.13
2022-08-20T16:56:37.902Z,0.67
2022-08-20T16:59:07.151Z,1.00
2022-08-20T17:01:35.547Z,0.90
2022-08-20T17:04:03.932Z,0.73
2022-08-20T17:06:35.005Z,0.98
2022-08-20T17:09:06.208Z,1.30
2022-08-20T17:11:38.566Z,0.83
2022-08-20T17:14:11.311Z,1.47
2022-08-20T17:16:41.381Z,0.90
2022-08-20T17:19:11.607Z,1.07
2022-08-20T17:21:40.789Z,0.83
2022-08-20T17:24:16.444Z,1.13
2022-08-20T17:26:48.302Z,0.97
2022-08-20T17:29:18.791Z,1.47
2022-08-20T17:31:47.908Z,0.70
2022-08-20T17:34:17.510Z,0.97
2022-08-20T17:36:53.441Z,1.33
2022-08-20T17:39:22.479Z,1.27
2022-08-20T17:41:53.762Z,1.30
2022-08-20T17:44:23.873Z,1.10
2022-08-20T17:46:53.642Z,1.17
2022-08-20T17:49:26.354Z,1.40
2022-08-20T17:51:56.203Z,0.90
2022-08-20T17:54:27.689Z,1.37
2022-08-20T17:57:02.439Z,1.50
2022-08-20T17:59:59.932Z,2.20
2022-08-20T18:02:21.621Z,1.80
2022-08-20T18:04:50.859Z,1.30
2022-08-20T18:07:23.536Z,1.30
2022-08-20T18:09:53.409Z,1.57
2022-08-20T18:12:33.888Z,1.10
2022-08-20T18:15:07.809Z,1.30
2022-08-20T18:17:46.816Z,0.97
2022-08-20T18:20:25.348Z,1.10
2022-08-20T18:22:56.471Z,1.30
2022-08-20T18:25:29.939Z,1.30
2022-08-20T18:28:04.274Z,1.10
2022-08-20T18:30:34.163Z,0.80
2022-08-20T18:33:05.031Z,1.60
2022-08-20T18:35:34.954Z,1.73
2022-08-20T18:38:13.656Z,1.67
2022-08-20T18:40:41.986Z,1.00
2022-08-20T18:43:16.754Z,1.30
2022-08-20T18:45:45.064Z,1.83
2022-08-20T18:48:22.244Z,1.17
2022-08-20T18:50:54.974Z,1.60
2022-08-20T18:53:30.307Z,1.77
2022-08-20T18:56:03.323Z,1.40
2022-08-20T18:58:33.876Z,1.13
2022-08-20T19:01:03.732Z,0.97
2022-08-20T19:03:33.361Z,1.43
2022-08-20T19:06:10.909Z,1.10
2022-08-20T19:08:49.757Z,1.67
2022-08-20T19:11:46.918Z,1.03
2022-08-20T19:14:43.943Z,1.70
2022-08-20T19:17:18.024Z,1.47
2022-08-20T19:19:46.164Z,1.70
2022-08-20T19:22:20.545Z,2.43
2022-08-20T19:24:56.625Z,1.33
2022-08-20T19:27:25.564Z,1.70
2022-08-20T19:29:56.642Z,1.40
2022-08-20T19:32:27.735Z,1.10
2022-08-20T19:34:59.088Z,1.57
2022-08-20T19:37:39.976Z,1.10
2022-08-20T19:40:22.813Z,1.67
2022-08-20T19:42:54.065Z,1.53
2022-08-20T19:45:30.713Z,1.10
2022-08-20T19:48:27.454Z,2.13
2022-08-20T19:51:05.892Z,1.73
2022-08-20T19:53:36.599Z,1.60
2022-08-20T19:56:07.736Z,1.60
2022-08-20T19:58:37.411Z,1.43
2022-08-20T20:01:12.066Z,1.23
2022-08-20T20:03:40.258Z,1.77
2022-08-20T20:06:16.751Z,2.10
2022-08-20T20:08:56.461Z,1.57
2022-08-20T20:11:30.788Z,1.87
2022-08-20T20:14:03.639Z,1.30
2022-08-20T20:16:33.887Z,1.67
2022-08-20T20:19:25.287Z,2.27
2022-08-20T20:21:54.080Z,1.57
2022-08-20T20:24:25.590Z,2.10
2022-08-20T20:26:53.707Z,1.93
2022-08-20T20:29:25.941Z,1.60
2022-08-20T20:31:57.473Z,1.40
2022-08-20T20:34:28.134Z,1.70
2022-08-20T20:37:08.360Z,1.57
2022-08-20T20:39:38.138Z,1.70
2022-08-20T20:42:08.981Z,1.70
2022-08-20T20:44:39.340Z,1.90
2022-08-20T20:47:18.006Z,1.87
2022-08-20T20:49:51.263Z,1.30
2022-08-20T20:52:24.492Z,1.90
2022-08-20T20:55:04.320Z,6.50
2022-08-20T20:57:37.875Z,1.70
2022-08-20T21:00:11.393Z,1.50
2022-08-20T21:02:40.937Z,2.00
2022-08-20T21:05:10.496Z,1.80
2022-08-20T21:07:50.555Z,2.13
2022-08-20T21:10:20.602Z,1.80
2022-08-20T21:12:52.657Z,2.13
2022-08-20T21:15:22.819Z,1.90
2022-08-20T21:17:52.728Z,1.83
2022-08-20T21:20:22.474Z,1.93
2022-08-20T21:22:50.630Z,1.97
2022-08-20T21:25:20.297Z,1.90
2022-08-20T21:27:51.181Z,2.30
2022-08-20T21:30:20.532Z,1.90
2022-08-20T21:32:48.669Z,2.07
2022-08-20T21:35:19.043Z,2.50
2022-08-20T21:37:47.144Z,2.17
2022-08-20T21:40:17.493Z,2.03
2022-08-20T21:42:50.044Z,1.83
2022-08-20T21:45:20.061Z,2.07
2022-08-20T21:47:48.751Z,2.30
2022-08-20T21:50:19.552Z,2.40
2022-08-20T21:52:55.276Z,2.30
2022-08-20T21:55:30.386Z,2.60
2022-08-20T21:57:59.280Z,2.00
2022-08-20T22:00:52.359Z,2.10
2022-08-20T22:03:21.887Z,2.10
2022-08-20T22:05:51.746Z,2.10
2022-08-20T22:08:21.075Z,2.40
2022-08-20T22:10:54.651Z,2.90
2022-08-20T22:13:22.654Z,1.87
2022-08-20T22:15:50.836Z,2.20
2022-08-20T22:18:18.931Z,2.20
2022-08-20T22:20:47.167Z,3.00
2022-08-20T22:23:16.721Z,2.10
2022-08-20T22:25:44.876Z,1.90
2022-08-20T22:28:13.226Z,2.10
2022-08-20T22:30:42.441Z,3.43
2022-08-20T22:33:13.558Z,3.20
2022-08-20T22:35:46.907Z,3.50
2022-08-20T22:38:16.551Z,2.70
2022-08-20T22:40:45.293Z,3.30
2022-08-20T22:43:13.663Z,3.83
2022-08-20T22:45:44.489Z,5.10
2022-08-20T22:48:15.769Z,4.27
2022-08-20T22:50:44.946Z,3.57
2022-08-20T22:53:14.471Z,4.30
2022-08-20T22:55:43.972Z,3.23
2022-08-20T22:58:13.695Z,3.60
2022-08-20T23:00:42.536Z,3.33
2022-08-20T23:03:11.535Z,3.60
2022-08-20T23:05:39.657Z,3.70
2022-08-20T23:08:08.363Z,3.40
2022-08-20T23:10:38.003Z,3.60
2022-08-20T23:13:08.526Z,2.73
2022-08-20T23:15:41.415Z,2.80
2022-08-20T23:18:16.495Z,3.30
2022-08-20T23:20:49.555Z,3.77
2022-08-20T23:23:17.631Z,3.50
2022-08-20T23:25:46.589Z,3.67
2022-08-20T23:28:18.877Z,3.13
2022-08-20T23:30:47.535Z,2.90
2022-08-20T23:33:16.232Z,3.10
2022-08-20T23:35:45.035Z,2.77
2022-08-20T23:38:13.680Z,2.93
2022-08-20T23:40:42.226Z,3.40
2022-08-20T23:43:10.761Z,3.33
2022-08-20T23:45:41.196Z,2.47
2022-08-20T23:48:09.664Z,2.47
2022-08-20T23:50:37.991Z,2.97
2022-08-20T23:53:06.798Z,4.53
2022-08-20T23:55:35.630Z,4.40
2022-08-20T23:58:03.797Z,4.20
